createdAt,value
2022-07-27T00:01:37.033Z,10.60
2022-07-27T00:04:33.793Z,7.50
2022-07-27T00:08:20.773Z,7.30
2022-07-27T00:11:22.246Z,8.10
2022-07-27T00:14:28.904Z,9.30
2022-07-27T00:17:30.368Z,7.70
2022-07-27T00:20:56.859Z,7.90
2022-07-27T00:23:54.802Z,12.70
2022-07-27T00:27:03.245Z,14.20
2022-07-27T00:29:54.831Z,9.00
2022-07-27T00:32:46.405Z,9.40
2022-07-27T00:35:43.144Z,6.70
2022-07-27T00:38:39.167Z,6.70
2022-07-27T00:42:02.940Z,10.40
2022-07-27T00:45:10.499Z,8.20
2022-07-27T00:48:36.910Z,7.40
2022-07-27T00:51:40.410Z,7.50
2022-07-27T00:55:00.419Z,6.20
2022-07-27T00:57:58.804Z,10.00
2022-07-27T01:01:12.127Z,8.80
2022-07-27T01:04:38.073Z,9.50
2022-07-27T01:07:58.575Z,13.20
2022-07-27T01:10:51.018Z,10.80
2022-07-27T01:13:55.710Z,10.20
2022-07-27T01:17:20.617Z,7.80
2022-07-27T01:20:35.757Z,7.90
2022-07-27T01:23:38.829Z,9.30
2022-07-27T01:26:50.717Z,6.30
2022-07-27T01:29:53.675Z,8.30
2022-07-27T01:33:26.271Z,8.00
2022-07-27T01:36:43.957Z,6.70
2022-07-27T01:39:56.201Z,6.30
2022-07-27T01:43:05.375Z,8.30
2022-07-27T01:46:30.063Z,9.50
2022-07-27T01:49:30.153Z,7.30
2022-07-27T01:52:36.090Z,10.60
2022-07-27T01:56:01.525Z,11.00
2022-07-27T01:59:04.475Z,6.80
2022-07-27T02:05:31.149Z,4.80
2022-07-27T02:08:29.299Z,7.20
2022-07-27T02:11:50.962Z,7.30
2022-07-27T02:14:39.441Z,6.20
2022-07-27T02:17:45.909Z,7.60
2022-07-27T02:20:34.901Z,8.60
2022-07-27T02:23:23.803Z,6.40
2022-07-27T02:26:13.447Z,8.00
2022-07-27T02:29:13.591Z,5.20
2022-07-27T02:32:03.420Z,5.60
2022-07-27T02:35:19.053Z,8.40
2022-07-27T02:38:33.681Z,6.30
2022-07-27T02:41:47.728Z,8.20
2022-07-27T02:44:42.852Z,6.40
2022-07-27T02:47:46.342Z,5.40
2022-07-27T02:50:49.950Z,8.90
2022-07-27T02:53:48.655Z,7.90
2022-07-27T02:56:39.968Z,9.40
2022-07-27T02:59:26.406Z,6.20
2022-07-27T03:02:35.381Z,5.60
2022-07-27T03:05:50.941Z,8.00
2022-07-27T03:08:52.617Z,7.10
2022-07-27T03:11:43.302Z,7.10
2022-07-27T03:14:49.331Z,8.00
2022-07-27T03:17:47.453Z,11.50
2022-07-27T03:21:01.464Z,6.80
2022-07-27T03:24:14.425Z,6.60
2022-07-27T03:27:22.649Z,8.10
2022-07-27T03:30:32.202Z,6.00
2022-07-27T03:33:35.188Z,6.30
2022-07-27T03:36:26.621Z,6.00
2022-07-27T03:39:29.512Z,6.70
2022-07-27T03:42:30.723Z,9.40
2022-07-27T03:45:35.850Z,4.20
2022-07-27T03:48:27.766Z,6.80
2022-07-27T03:51:13.881Z,7.00
2022-07-27T03:54:43.141Z,11.70
2022-07-27T03:57:41.201Z,7.90
2022-07-27T04:00:35.093Z,7.70
2022-07-27T04:03:38.886Z,7.10
2022-07-27T04:06:37.791Z,6.80
2022-07-27T04:09:32.018Z,9.90
2022-07-27T04:12:28.485Z,7.90
2022-07-27T04:15:22.498Z,7.70
2022-07-27T04:18:31.714Z,9.40
2022-07-27T04:21:21.794Z,6.30
2022-07-27T04:24:23.106Z,7.10
2022-07-27T04:27:11.061Z,10.00
2022-07-27T04:30:09.426Z,8.80
2022-07-27T04:32:55.921Z,8.80
2022-07-27T04:35:46.761Z,7.70
2022-07-27T04:38:43.776Z,12.00
2022-07-27T04:41:45.582Z,8.20
2022-07-27T04:44:38.979Z,7.40
2022-07-27T04:47:28.314Z,8.00
2022-07-27T04:50:23.748Z,9.20
2022-07-27T04:53:37.653Z,7.30
2022-07-27T04:56:40.237Z,11.10
2022-07-27T04:59:31.624Z,14.40
2022-07-27T05:02:31.802Z,12.90
2022-07-27T05:05:28.241Z,13.50
2022-07-27T05:08:13.779Z,12.70
2022-07-27T05:11:02.269Z,8.80
2022-07-27T05:13:52.348Z,6.80
2022-07-27T05:16:59.062Z,8.30
2022-07-27T05:19:52.602Z,19.10
2022-07-27T05:22:39.896Z,10.40
2022-07-27T05:25:26.728Z,10.70
2022-07-27T05:28:12.987Z,8.10
2022-07-27T05:30:56.959Z,11.40
2022-07-27T05:33:49.149Z,7.70
2022-07-27T05:36:33.736Z,13.80
2022-07-27T05:39:31.704Z,11.40
2022-07-27T05:42:17.552Z,12.40
2022-07-27T05:45:01.213Z,9.50
2022-07-27T05:47:54.619Z,9.30
2022-07-27T05:50:41.649Z,8.80
2022-07-27T05:53:25.337Z,11.70
2022-07-27T05:56:11.622Z,10.50
2022-07-27T05:59:06.483Z,12.40
2022-07-27T06:01:49.987Z,10.10
2022-07-27T06:04:37.701Z,10.40
2022-07-27T06:07:44.067Z,10.00
2022-07-27T06:10:36.986Z,8.00
2022-07-27T06:13:24.285Z,13.60
2022-07-27T06:16:14.180Z,11.10
2022-07-27T06:19:00.460Z,12.10
2022-07-27T06:21:43.985Z,6.10
2022-07-27T06:24:29.644Z,13.20
2022-07-27T06:27:13.105Z,11.50
2022-07-27T06:30:09.766Z,11.30
2022-07-27T06:32:55.831Z,8.70
2022-07-27T06:35:43.685Z,8.80
2022-07-27T06:38:38.518Z,14.30
2022-07-27T06:41:23.959Z,14.80
2022-07-27T06:44:13.194Z,12.70
2022-07-27T06:47:01.789Z,9.30
2022-07-27T06:49:45.360Z,11.10
2022-07-27T06:52:32.024Z,7.10
2022-07-27T06:55:39.897Z,9.10
2022-07-27T06:58:25.689Z,6.70
2022-07-27T07:01:11.972Z,11.50
2022-07-27T07:03:56.623Z,9.80
2022-07-27T07:06:42.163Z,8.50
2022-07-27T07:09:28.620Z,6.60
2022-07-27T07:12:22.866Z,10.90
2022-07-27T07:15:09.347Z,10.60
2022-07-27T07:18:04.046Z,8.90
2022-07-27T07:20:50.479Z,6.20
2022-07-27T07:23:35.941Z,9.70
2022-07-27T07:26:22.917Z,13.00
2022-07-27T07:29:11.760Z,10.50
2022-07-27T07:31:58.482Z,6.80
2022-07-27T07:34:44.312Z,18.90
2022-07-27T07:37:43.095Z,9.20
2022-07-27T07:40:45.319Z,6.30
2022-07-27T07:46:12.644Z,9.50
2022-07-27T07:49:08.859Z,12.50
2022-07-27T07:51:58.842Z,9.30
2022-07-27T07:54:44.786Z,13.70
2022-07-27T07:57:37.821Z,11.40
2022-07-27T08:00:24.310Z,7.50
2022-07-27T08:03:21.549Z,13.40
2022-07-27T08:06:06.612Z,9.50
2022-07-27T08:08:52.172Z,8.60
2022-07-27T08:11:42.758Z,10.10
2022-07-27T08:14:34.068Z,6.60
2022-07-27T08:17:28.747Z,10.50
2022-07-27T08:20:13.711Z,10.90
2022-07-27T08:23:02.778Z,6.80
2022-07-27T08:25:54.762Z,6.60
2022-07-27T08:28:49.069Z,8.40
2022-07-27T08:31:51.106Z,9.80
2022-07-27T08:34:44.183Z,13.20
2022-07-27T08:37:30.644Z,6.10
2022-07-27T08:43:24.820Z,8.50
2022-07-27T08:46:11.027Z,5.10
2022-07-27T08:48:54.309Z,3.40
2022-07-27T08:51:37.503Z,6.30
2022-07-27T08:54:22.019Z,3.70
2022-07-27T08:57:04.986Z,3.80
2022-07-27T08:59:48.043Z,8.10
2022-07-27T09:02:32.019Z,6.20
2022-07-27T09:05:15.740Z,4.40
2022-07-27T09:08:16.034Z,3.30
2022-07-27T09:11:00.989Z,8.30
2022-07-27T09:13:44.415Z,8.10
2022-07-27T09:17:08.984Z,7.10
2022-07-27T09:19:59.875Z,3.70
2022-07-27T09:22:52.512Z,2.40
2022-07-27T09:26:02.099Z,6.60
2022-07-27T09:28:47.368Z,6.60
2022-07-27T09:31:41.488Z,6.00
2022-07-27T09:34:35.347Z,9.10
2022-07-27T09:37:28.193Z,5.60
2022-07-27T09:40:42.931Z,5.00
2022-07-27T09:46:35.970Z,5.90
2022-07-27T09:49:36.486Z,3.10
2022-07-27T09:52:32.321Z,4.00
2022-07-27T09:55:21.301Z,4.20
2022-07-27T09:58:15.748Z,3.70
2022-07-27T10:01:47.676Z,5.40
2022-07-27T10:04:34.199Z,7.50
2022-07-27T10:07:22.305Z,2.70
2022-07-27T10:10:09.923Z,6.50
2022-07-27T10:12:55.950Z,19.90
2022-07-27T10:15:43.646Z,4.80
2022-07-27T10:18:56.704Z,4.60
2022-07-27T10:21:46.191Z,4.50
2022-07-27T10:24:36.930Z,6.40
2022-07-27T10:27:26.439Z,6.00
2022-07-27T10:30:10.313Z,2.70
2022-07-27T10:32:53.470Z,5.60
2022-07-27T10:35:38.788Z,4.20
2022-07-27T10:38:44.319Z,4.80
2022-07-27T10:41:28.564Z,1.90
2022-07-27T10:44:25.634Z,6.50
2022-07-27T10:47:08.719Z,5.60
2022-07-27T10:50:17.850Z,8.30
2022-07-27T10:53:04.064Z,10.70
2022-07-27T10:55:48.634Z,7.30
2022-07-27T10:58:31.577Z,5.90
2022-07-27T11:01:16.957Z,6.40
2022-07-27T11:04:09.705Z,5.90
2022-07-27T11:10:06.950Z,9.60
2022-07-27T11:12:53.834Z,4.40
2022-07-27T11:15:36.977Z,5.80
2022-07-27T11:18:28.286Z,4.70
2022-07-27T11:21:34.015Z,6.10
2022-07-27T11:24:19.065Z,5.50
2022-07-27T11:27:17.081Z,6.90
2022-07-27T11:30:01.567Z,5.30
2022-07-27T11:32:44.621Z,4.30
2022-07-27T11:35:30.932Z,6.30
2022-07-27T11:38:13.903Z,2.30
2022-07-27T11:41:07.259Z,7.10
2022-07-27T11:44:02.852Z,10.40
2022-07-27T11:46:47.372Z,5.70
2022-07-27T11:49:32.681Z,8.00
2022-07-27T11:52:18.008Z,4.70
2022-07-27T11:55:01.393Z,3.80
2022-07-27T11:57:44.500Z,4.70
2022-07-27T12:00:40.743Z,2.40
2022-07-27T12:03:45.792Z,2.70
2022-07-27T12:06:31.532Z,5.80
2022-07-27T12:09:16.879Z,5.50
2022-07-27T12:12:11.005Z,4.30
2022-07-27T12:14:58.052Z,8.90
2022-07-27T12:17:55.860Z,5.10
2022-07-27T12:20:39.864Z,7.00
2022-07-27T12:23:29.804Z,4.60
2022-07-27T12:26:25.468Z,4.70
2022-07-27T12:29:13.579Z,8.00
2022-07-27T12:32:02.925Z,4.90
2022-07-27T12:34:46.279Z,4.40
2022-07-27T12:37:31.675Z,2.30
2022-07-27T12:40:19.256Z,4.50
2022-07-27T12:43:05.040Z,5.00
2022-07-27T12:45:50.471Z,3.10
2022-07-27T12:48:39.816Z,5.40
2022-07-27T12:51:24.345Z,6.80
2022-07-27T12:54:10.938Z,6.80
2022-07-27T12:56:56.947Z,7.10
2022-07-27T12:59:42.368Z,3.20
2022-07-27T13:02:25.876Z,2.90
2022-07-27T13:05:14.762Z,7.20
2022-07-27T13:07:59.266Z,4.60
2022-07-27T13:10:48.506Z,2.40
2022-07-27T13:13:32.113Z,10.30
2022-07-27T13:16:22.805Z,7.30
2022-07-27T13:19:06.460Z,5.60
2022-07-27T13:21:50.979Z,5.60
2022-07-27T13:24:37.084Z,9.50
2022-07-27T13:27:23.119Z,2.60
2022-07-27T13:30:09.597Z,2.60
2022-07-27T13:32:53.219Z,5.30
2022-07-27T13:35:39.149Z,4.50
2022-07-27T13:38:31.112Z,2.90
2022-07-27T13:43:57.459Z,3.50
2022-07-27T13:46:40.708Z,4.70
2022-07-27T13:49:24.090Z,1.60
2022-07-27T13:52:09.661Z,5.80
2022-07-27T13:54:52.616Z,4.00
2022-07-27T13:57:38.380Z,3.60
2022-07-27T14:00:21.885Z,1.50
2022-07-27T14:03:06.364Z,5.20
2022-07-27T14:05:49.914Z,2.70
2022-07-27T14:08:33.998Z,7.00
2022-07-27T14:11:17.205Z,4.10
2022-07-27T14:14:00.349Z,3.70
2022-07-27T14:16:43.525Z,5.10
2022-07-27T14:19:26.611Z,4.00
2022-07-27T14:22:12.675Z,1.20
2022-07-27T14:24:55.911Z,4.10
2022-07-27T14:27:49.180Z,4.30
2022-07-27T14:30:32.318Z,5.30
2022-07-27T14:33:16.455Z,3.60
2022-07-27T14:36:00.284Z,2.30
2022-07-27T14:38:44.388Z,3.00
2022-07-27T14:41:28.807Z,1.30
2022-07-27T14:44:11.868Z,4.30
2022-07-27T14:47:03.750Z,3.60
2022-07-27T14:49:49.965Z,4.00
2022-07-27T14:52:36.291Z,5.60
2022-07-27T14:55:19.843Z,5.20
2022-07-27T14:58:05.547Z,5.00
2022-07-27T15:00:48.710Z,4.70
2022-07-27T15:03:32.422Z,4.90
2022-07-27T15:06:15.605Z,4.30
2022-07-27T15:08:59.037Z,3.10
2022-07-27T15:11:42.749Z,3.70
2022-07-27T15:14:27.286Z,4.00
2022-07-27T15:17:18.607Z,7.00
2022-07-27T15:20:02.012Z,5.10
2022-07-27T15:22:45.210Z,3.50
2022-07-27T15:25:37.541Z,2.60
2022-07-27T15:28:20.640Z,1.20
2022-07-27T15:31:04.391Z,5.10
2022-07-27T15:33:50.405Z,7.40
2022-07-27T15:36:36.362Z,4.10
2022-07-27T15:39:26.512Z,3.10
2022-07-27T15:42:09.972Z,6.90
2022-07-27T15:44:53.194Z,5.10
2022-07-27T15:47:39.710Z,3.80
2022-07-27T15:50:25.615Z,2.40
2022-07-27T15:53:09.629Z,4.50
2022-07-27T15:55:55.627Z,4.40
2022-07-27T15:58:50.385Z,5.10
2022-07-27T16:01:35.583Z,8.80
2022-07-27T16:04:21.985Z,3.80
2022-07-27T16:07:05.662Z,5.90
2022-07-27T16:10:00.785Z,4.00
2022-07-27T16:12:43.825Z,5.00
2022-07-27T16:15:45.663Z,4.90
2022-07-27T16:18:30.676Z,4.20
2022-07-27T16:21:18.693Z,5.30
2022-07-27T16:24:02.363Z,4.00
2022-07-27T16:26:57.838Z,4.00
2022-07-27T16:29:43.900Z,3.10
2022-07-27T16:32:30.166Z,3.50
2022-07-27T16:35:19.603Z,14.60
2022-07-27T16:38:02.781Z,8.90
2022-07-27T16:40:49.144Z,6.30
2022-07-27T16:43:41.754Z,6.70
2022-07-27T16:46:27.938Z,7.20
2022-07-27T16:49:11.797Z,3.20
2022-07-27T16:51:58.105Z,6.40
2022-07-27T16:54:47.054Z,5.20
2022-07-27T16:57:30.290Z,3.60
2022-07-27T17:00:43.894Z,8.50
2022-07-27T17:03:29.391Z,6.10
2022-07-27T17:06:21.972Z,3.90
2022-07-27T17:09:07.957Z,4.00
2022-07-27T17:12:11.328Z,3.20
2022-07-27T17:15:00.598Z,3.40
2022-07-27T17:17:56.538Z,3.10
2022-07-27T17:20:42.116Z,4.10
2022-07-27T17:23:42.422Z,4.80
2022-07-27T17:26:49.040Z,6.00
2022-07-27T17:29:34.667Z,2.60
2022-07-27T17:32:30.357Z,12.90
2022-07-27T17:35:33.188Z,8.60
2022-07-27T17:38:51.759Z,7.90
2022-07-27T17:41:38.539Z,6.60
2022-07-27T17:44:38.163Z,7.30
2022-07-27T17:47:23.935Z,3.80
2022-07-27T17:50:10.308Z,4.40
2022-07-27T17:53:03.641Z,4.00
2022-07-27T17:55:54.490Z,5.20
2022-07-27T17:59:37.205Z,4.80
2022-07-27T18:02:24.949Z,7.30
2022-07-27T18:05:32.363Z,6.60
2022-07-27T18:08:24.893Z,5.00
2022-07-27T18:11:17.518Z,5.50
2022-07-27T18:14:31.979Z,5.60
2022-07-27T18:17:24.885Z,5.50
2022-07-27T18:20:32.099Z,8.50
2022-07-27T18:23:19.771Z,3.20
2022-07-27T18:26:06.370Z,5.10
2022-07-27T18:28:59.929Z,5.60
2022-07-27T18:32:08.202Z,5.20
2022-07-27T18:34:57.067Z,8.80
2022-07-27T18:38:13.853Z,5.00
2022-07-27T18:41:20.118Z,6.30
2022-07-27T18:44:13.792Z,5.80
2022-07-27T18:47:13.971Z,8.90
2022-07-27T18:50:17.260Z,8.10
2022-07-27T18:53:23.435Z,4.50
2022-07-27T18:56:15.903Z,5.80
2022-07-27T19:01:53.255Z,5.80
2022-07-27T19:04:59.302Z,4.00
2022-07-27T19:08:13.284Z,7.50
2022-07-27T19:11:26.350Z,4.80
2022-07-27T19:14:32.712Z,4.40
2022-07-27T19:17:25.213Z,5.80
2022-07-27T19:20:45.762Z,7.70
2022-07-27T19:23:43.820Z,12.60
2022-07-27T19:26:58.456Z,15.10
2022-07-27T19:29:46.902Z,14.70
2022-07-27T19:33:19.853Z,13.60
2022-07-27T19:36:43.501Z,15.20
2022-07-27T19:39:57.424Z,12.00
2022-07-27T19:43:12.426Z,21.60
2022-07-27T19:46:18.657Z,10.00
2022-07-27T19:49:47.056Z,9.70
2022-07-27T19:52:49.021Z,12.20
2022-07-27T19:56:03.890Z,9.40
2022-07-27T19:59:20.338Z,6.40
2022-07-27T20:02:53.116Z,11.60
2022-07-27T20:06:16.389Z,5.60
2022-07-27T20:09:39.912Z,10.70
2022-07-27T20:13:13.436Z,14.30
2022-07-27T20:16:38.859Z,14.20
2022-07-27T20:20:12.451Z,25.40
2022-07-27T20:23:44.701Z,12.90
2022-07-27T20:27:30.373Z,18.60
2022-07-27T20:31:00.553Z,24.70
2022-07-27T20:34:47.786Z,19.90
2022-07-27T20:38:01.386Z,18.10
2022-07-27T20:41:17.387Z,12.10
2022-07-27T20:44:46.810Z,12.60
2022-07-27T20:48:33.661Z,11.50
2022-07-27T20:52:09.736Z,11.30
2022-07-27T20:55:45.885Z,14.30
2022-07-27T20:59:29.560Z,15.30
2022-07-27T21:02:56.605Z,18.30
2022-07-27T21:06:23.845Z,16.80
2022-07-27T21:09:59.352Z,15.00
2022-07-27T21:13:36.147Z,9.00
2022-07-27T21:17:20.662Z,8.20
2022-07-27T21:21:03.456Z,11.30
2022-07-27T21:24:58.207Z,11.70
2022-07-27T21:28:53.879Z,9.70
2022-07-27T21:32:57.742Z,11.30
2022-07-27T21:36:34.493Z,10.80
2022-07-27T21:40:17.992Z,7.90
2022-07-27T21:43:47.248Z,11.30
2022-07-27T21:47:33.836Z,10.60
2022-07-27T21:51:19.647Z,14.10
2022-07-27T21:55:13.391Z,9.00
2022-07-27T21:58:48.106Z,9.80
2022-07-27T22:02:21.374Z,9.00
2022-07-27T22:05:49.747Z,15.90
2022-07-27T22:09:17.106Z,11.20
2022-07-27T22:12:39.752Z,12.10
2022-07-27T22:16:41.229Z,7.70
2022-07-27T22:20:09.620Z,9.30
2022-07-27T22:26:48.863Z,8.30
2022-07-27T22:29:53.016Z,10.30
2022-07-27T22:33:20.033Z,6.20
2022-07-27T22:37:14.973Z,8.40
2022-07-27T22:40:23.909Z,16.10
2022-07-27T22:43:57.058Z,8.90
2022-07-27T22:47:50.936Z,15.20
2022-07-27T22:51:16.375Z,18.00
2022-07-27T22:55:02.409Z,17.70
2022-07-27T22:58:52.680Z,11.40
2022-07-27T23:02:22.463Z,12.10
2022-07-27T23:06:16.401Z,12.90
2022-07-27T23:13:33.946Z,13.40
2022-07-27T23:17:20.777Z,10.60
2022-07-27T23:20:56.077Z,9.80
2022-07-27T23:24:41.988Z,9.90
2022-07-27T23:28:21.997Z,12.10
2022-07-27T23:32:25.809Z,10.60
2022-07-27T23:36:29.658Z,17.00
2022-07-27T23:40:32.369Z,11.00
2022-07-27T23:44:15.260Z,11.90
2022-07-27T23:48:05.582Z,12.40
2022-07-27T23:51:54.827Z,8.30
2022-07-27T23:55:44.671Z,9.80
2022-07-27T23:59:23.678Z,12.90
